sensor_id;sensor_type;location;lat;lon;timestamp;P1;durP1;ratioP1;P2;durP2;ratioP2
72586;SDS011;60621;49.576;11.024;2023-04-22T00:00:04;10.32;;;5.18;;
72586;SDS011;60621;49.576;11.024;2023-04-22T00:01:09;9.20;;;4.57;;
72586;SDS011;60621;49.576;11.024;2023-04-22T00:02:11;7.72;;;4.30;;
72586;SDS011;60621;49.576;11.024;2023-04-22T00:03:17;8.18;;;3.83;;
72586;SDS011;60621;49.576;11.024;2023-04-22T00:04:19;8.05;;;4.40;;
72586;SDS011;60621;49.576;11.024;2023-04-22T00:05:21;7.07;;;3.88;;
72586;SDS011;60621;49.576;11.024;2023-04-22T00:06:23;7.28;;;4.10;;
72586;SDS011;60621;49.576;11.024;2023-04-22T00:07:25;8.45;;;4.13;;
72586;SDS011;60621;49.576;11.024;2023-04-22T00:08:27;8.57;;;4.28;;
72586;SDS011;60621;49.576;11.024;2023-04-22T00:09:28;7.75;;;4.28;;
72586;SDS011;60621;49.576;11.024;2023-04-22T00:10:30;9.50;;;4.60;;
72586;SDS011;60621;49.576;11.024;2023-04-22T00:11:31;8.38;;;4.30;;
72586;SDS011;60621;49.576;11.024;2023-04-22T00:12:33;7.05;;;4.05;;
72586;SDS011;60621;49.576;11.024;2023-04-22T00:13:34;7.22;;;4.20;;
72586;SDS011;60621;49.576;11.024;2023-04-22T00:14:37;9.27;;;4.60;;
72586;SDS011;60621;49.576;11.024;2023-04-22T00:15:39;8.45;;;4.50;;
72586;SDS011;60621;49.576;11.024;2023-04-22T00:16:40;6.55;;;3.70;;
72586;SDS011;60621;49.576;11.024;2023-04-22T00:17:42;7.65;;;3.92;;
72586;SDS011;60621;49.576;11.024;2023-04-22T00:18:46;8.95;;;4.20;;
72586;SDS011;60621;49.576;11.024;2023-04-22T00:19:47;7.50;;;4.25;;
72586;SDS011;60621;49.576;11.024;2023-04-22T00:20:49;7.07;;;4.05;;
72586;SDS011;60621;49.576;11.024;2023-04-22T00:21:51;8.43;;;4.30;;
72586;SDS011;60621;49.576;11.024;2023-04-22T00:22:53;6.45;;;3.90;;
72586;SDS011;60621;49.576;11.024;2023-04-22T00:23:54;5.88;;;3.63;;
72586;SDS011;60621;49.576;11.024;2023-04-22T00:24:56;6.18;;;3.70;;
72586;SDS011;60621;49.576;11.024;2023-04-22T00:25:57;6.55;;;3.78;;
72586;SDS011;60621;49.576;11.024;2023-04-22T00:26:59;7.90;;;3.72;;
72586;SDS011;60621;49.576;11.024;2023-04-22T00:28:01;7.78;;;3.67;;
72586;SDS011;60621;49.576;11.024;2023-04-22T00:29:02;7.55;;;3.83;;
72586;SDS011;60621;49.576;11.024;2023-04-22T00:30:04;6.97;;;4.28;;
72586;SDS011;60621;49.576;11.024;2023-04-22T00:31:06;7.53;;;3.90;;
72586;SDS011;60621;49.576;11.024;2023-04-22T00:32:08;8.63;;;4.32;;
72586;SDS011;60621;49.576;11.024;2023-04-22T00:33:10;7.40;;;3.97;;
72586;SDS011;60621;49.576;11.024;2023-04-22T00:34:11;7.38;;;3.97;;
72586;SDS011;60621;49.576;11.024;2023-04-22T00:35:13;6.68;;;3.70;;
72586;SDS011;60621;49.576;11.024;2023-04-22T00:36:14;8.40;;;3.90;;
72586;SDS011;60621;49.576;11.024;2023-04-22T00:37:16;8.73;;;3.97;;
72586;SDS011;60621;49.576;11.024;2023-04-22T00:38:18;8.32;;;4.45;;
72586;SDS011;60621;49.576;11.024;2023-04-22T00:39:19;7.05;;;4.10;;
72586;SDS011;60621;49.576;11.024;2023-04-22T00:40:21;7.60;;;3.90;;
72586;SDS011;60621;49.576;11.024;2023-04-22T00:41:23;8.45;;;4.05;;
72586;SDS011;60621;49.576;11.024;2023-04-22T00:42:24;6.82;;;3.97;;
72586;SDS011;60621;49.576;11.024;2023-04-22T00:43:27;6.78;;;3.83;;
72586;SDS011;60621;49.576;11.024;2023-04-22T00:44:29;9.23;;;4.10;;
72586;SDS011;60621;49.576;11.024;2023-04-22T00:45:31;7.65;;;4.00;;
72586;SDS011;60621;49.576;11.024;2023-04-22T00:46:32;7.68;;;4.18;;
72586;SDS011;60621;49.576;11.024;2023-04-22T00:47:34;6.50;;;4.00;;
72586;SDS011;60621;49.576;11.024;2023-04-22T00:48:37;6.97;;;4.38;;
72586;SDS011;60621;49.576;11.024;2023-04-22T00:49:39;9.05;;;3.92;;
72586;SDS011;60621;49.576;11.024;2023-04-22T00:50:41;7.43;;;4.03;;
72586;SDS011;60621;49.576;11.024;2023-04-22T00:51:42;8.45;;;3.92;;
72586;SDS011;60621;49.576;11.024;2023-04-22T00:52:44;8.23;;;4.18;;
72586;SDS011;60621;49.576;11.024;2023-04-22T00:53:46;7.70;;;4.30;;
72586;SDS011;60621;49.576;11.024;2023-04-22T00:54:47;7.45;;;4.10;;
72586;SDS011;60621;49.576;11.024;2023-04-22T00:55:49;9.00;;;4.40;;
72586;SDS011;60621;49.576;11.024;2023-04-22T00:56:51;8.23;;;4.30;;
72586;SDS011;60621;49.576;11.024;2023-04-22T00:57:53;7.70;;;4.20;;
72586;SDS011;60621;49.576;11.024;2023-04-22T00:58:56;9.15;;;4.45;;
72586;SDS011;60621;49.576;11.024;2023-04-22T00:59:58;12.18;;;4.50;;
72586;SDS011;60621;49.576;11.024;2023-04-22T01:00:59;7.63;;;4.20;;
72586;SDS011;60621;49.576;11.024;2023-04-22T01:02:01;8.65;;;4.45;;
72586;SDS011;60621;49.576;11.024;2023-04-22T01:03:05;6.50;;;4.15;;
72586;SDS011;60621;49.576;11.024;2023-04-22T01:04:07;7.70;;;4.40;;
72586;SDS011;60621;49.576;11.024;2023-04-22T01:05:12;7.05;;;4.45;;
72586;SDS011;60621;49.576;11.024;2023-04-22T01:06:14;7.85;;;4.60;;
72586;SDS011;60621;49.576;11.024;2023-04-22T01:07:19;8.52;;;3.83;;
72586;SDS011;60621;49.576;11.024;2023-04-22T01:08:20;7.88;;;4.15;;
72586;SDS011;60621;49.576;11.024;2023-04-22T01:09:22;8.82;;;4.05;;
72586;SDS011;60621;49.576;11.024;2023-04-22T01:10:23;8.93;;;4.32;;
72586;SDS011;60621;49.576;11.024;2023-04-22T01:11:25;7.70;;;4.15;;
72586;SDS011;60621;49.576;11.024;2023-04-22T01:12:27;7.47;;;4.47;;
72586;SDS011;60621;49.576;11.024;2023-04-22T01:13:31;6.82;;;4.13;;
72586;SDS011;60621;49.576;11.024;2023-04-22T01:14:33;7.28;;;3.90;;
72586;SDS011;60621;49.576;11.024;2023-04-22T01:15:35;9.38;;;4.50;;
72586;SDS011;60621;49.576;11.024;2023-04-22T01:16:37;7.47;;;3.90;;
72586;SDS011;60621;49.576;11.024;2023-04-22T01:17:39;7.57;;;4.10;;
72586;SDS011;60621;49.576;11.024;2023-04-22T01:18:41;7.50;;;4.63;;
72586;SDS011;60621;49.576;11.024;2023-04-22T01:19:43;8.07;;;4.38;;
72586;SDS011;60621;49.576;11.024;2023-04-22T01:20:45;8.23;;;4.07;;
72586;SDS011;60621;49.576;11.024;2023-04-22T01:21:46;8.70;;;4.50;;
72586;SDS011;60621;49.576;11.024;2023-04-22T01:22:51;8.00;;;4.25;;
72586;SDS011;60621;49.576;11.024;2023-04-22T01:23:54;8.23;;;4.47;;
72586;SDS011;60621;49.576;11.024;2023-04-22T01:24:56;6.53;;;4.00;;
72586;SDS011;60621;49.576;11.024;2023-04-22T01:25:58;7.60;;;4.40;;
72586;SDS011;60621;49.576;11.024;2023-04-22T01:27:00;6.90;;;4.03;;
72586;SDS011;60621;49.576;11.024;2023-04-22T01:28:02;8.13;;;4.22;;
72586;SDS011;60621;49.576;11.024;2023-04-22T01:29:04;8.15;;;4.28;;
72586;SDS011;60621;49.576;11.024;2023-04-22T01:30:06;6.88;;;4.22;;
72586;SDS011;60621;49.576;11.024;2023-04-22T01:31:08;7.75;;;4.30;;
72586;SDS011;60621;49.576;11.024;2023-04-22T01:32:10;7.85;;;4.68;;
72586;SDS011;60621;49.576;11.024;2023-04-22T01:33:11;9.35;;;4.30;;
72586;SDS011;60621;49.576;11.024;2023-04-22T01:34:13;7.35;;;4.05;;
72586;SDS011;60621;49.576;11.024;2023-04-22T01:35:15;8.90;;;4.13;;
72586;SDS011;60621;49.576;11.024;2023-04-22T01:36:16;9.50;;;4.45;;
72586;SDS011;60621;49.576;11.024;2023-04-22T01:37:18;7.32;;;4.10;;
72586;SDS011;60621;49.576;11.024;2023-04-22T01:38:19;8.50;;;4.38;;
72586;SDS011;60621;49.576;11.024;2023-04-22T01:39:21;8.77;;;4.13;;
72586;SDS011;60621;49.576;11.024;2023-04-22T01:40:22;10.50;;;4.32;;
72586;SDS011;60621;49.576;11.024;2023-04-22T01:41:26;8.10;;;4.20;;
72586;SDS011;60621;49.576;11.024;2023-04-22T01:42:28;8.52;;;4.07;;
72586;SDS011;60621;49.576;11.024;2023-04-22T01:43:30;8.50;;;4.25;;
72586;SDS011;60621;49.576;11.024;2023-04-22T01:44:32;7.45;;;4.03;;
72586;SDS011;60621;49.576;11.024;2023-04-22T01:45:34;9.13;;;4.45;;
72586;SDS011;60621;49.576;11.024;2023-04-22T01:46:35;7.93;;;4.35;;
72586;SDS011;60621;49.576;11.024;2023-04-22T01:47:37;8.13;;;4.50;;
72586;SDS011;60621;49.576;11.024;2023-04-22T01:48:39;8.27;;;4.35;;
72586;SDS011;60621;49.576;11.024;2023-04-22T01:49:40;8.07;;;4.82;;
72586;SDS011;60621;49.576;11.024;2023-04-22T01:50:42;9.55;;;4.95;;
72586;SDS011;60621;49.576;11.024;2023-04-22T01:51:44;6.78;;;4.35;;
72586;SDS011;60621;49.576;11.024;2023-04-22T01:52:46;7.70;;;4.32;;
72586;SDS011;60621;49.576;11.024;2023-04-22T01:53:48;9.65;;;4.40;;
72586;SDS011;60621;49.576;11.024;2023-04-22T01:54:49;8.82;;;3.95;;
72586;SDS011;60621;49.576;11.024;2023-04-22T01:55:51;8.13;;;4.47;;
72586;SDS011;60621;49.576;11.024;2023-04-22T01:56:53;7.38;;;4.45;;
72586;SDS011;60621;49.576;11.024;2023-04-22T01:57:55;9.38;;;4.82;;
72586;SDS011;60621;49.576;11.024;2023-04-22T01:58:57;7.35;;;3.97;;
72586;SDS011;60621;49.576;11.024;2023-04-22T01:59:58;8.10;;;3.95;;
72586;SDS011;60621;49.576;11.024;2023-04-22T02:01:00;6.97;;;4.22;;
72586;SDS011;60621;49.576;11.024;2023-04-22T02:02:02;7.97;;;3.90;;
72586;SDS011;60621;49.576;11.024;2023-04-22T02:03:04;6.97;;;4.53;;
72586;SDS011;60621;49.576;11.024;2023-04-22T02:04:05;9.25;;;3.97;;
72586;SDS011;60621;49.576;11.024;2023-04-22T02:05:07;7.90;;;4.28;;
72586;SDS011;60621;49.576;11.024;2023-04-22T02:06:09;7.57;;;4.20;;
72586;SDS011;60621;49.576;11.024;2023-04-22T02:07:10;7.90;;;4.10;;
72586;SDS011;60621;49.576;11.024;2023-04-22T02:08:12;8.38;;;4.35;;
72586;SDS011;60621;49.576;11.024;2023-04-22T02:09:13;8.00;;;4.30;;
72586;SDS011;60621;49.576;11.024;2023-04-22T02:10:15;7.00;;;4.30;;
72586;SDS011;60621;49.576;11.024;2023-04-22T02:11:16;9.45;;;4.45;;
72586;SDS011;60621;49.576;11.024;2023-04-22T02:12:18;8.02;;;4.47;;
72586;SDS011;60621;49.576;11.024;2023-04-22T02:13:19;7.35;;;4.40;;
72586;SDS011;60621;49.576;11.024;2023-04-22T02:14:21;7.90;;;4.18;;
72586;SDS011;60621;49.576;11.024;2023-04-22T02:15:23;8.73;;;4.03;;
72586;SDS011;60621;49.576;11.024;2023-04-22T02:16:24;7.78;;;4.50;;
72586;SDS011;60621;49.576;11.024;2023-04-22T02:17:26;8.07;;;4.10;;
72586;SDS011;60621;49.576;11.024;2023-04-22T02:18:28;8.73;;;4.15;;
72586;SDS011;60621;49.576;11.024;2023-04-22T02:19:29;8.52;;;4.55;;
72586;SDS011;60621;49.576;11.024;2023-04-22T02:20:31;7.05;;;3.90;;
72586;SDS011;60621;49.576;11.024;2023-04-22T02:21:32;7.70;;;4.57;;
72586;SDS011;60621;49.576;11.024;2023-04-22T02:22:34;7.32;;;4.10;;
72586;SDS011;60621;49.576;11.024;2023-04-22T02:23:36;7.10;;;4.10;;
72586;SDS011;60621;49.576;11.024;2023-04-22T02:25:46;7.88;;;4.05;;
72586;SDS011;60621;49.576;11.024;2023-04-22T02:26:51;9.32;;;4.40;;
72586;SDS011;60621;49.576;11.024;2023-04-22T02:27:53;8.60;;;4.28;;
72586;SDS011;60621;49.576;11.024;2023-04-22T02:28:54;11.48;;;4.32;;
72586;SDS011;60621;49.576;11.024;2023-04-22T02:29:56;7.35;;;4.45;;
72586;SDS011;60621;49.576;11.024;2023-04-22T02:30:57;8.35;;;4.40;;
72586;SDS011;60621;49.576;11.024;2023-04-22T02:31:59;7.82;;;4.03;;
72586;SDS011;60621;49.576;11.024;2023-04-22T02:33:00;8.15;;;4.68;;
72586;SDS011;60621;49.576;11.024;2023-04-22T02:34:02;8.50;;;4.07;;
72586;SDS011;60621;49.576;11.024;2023-04-22T02:35:04;10.35;;;4.57;;
72586;SDS011;60621;49.576;11.024;2023-04-22T02:36:06;8.57;;;4.78;;
72586;SDS011;60621;49.576;11.024;2023-04-22T02:37:08;9.73;;;4.60;;
72586;SDS011;60621;49.576;11.024;2023-04-22T02:38:09;8.70;;;4.65;;
72586;SDS011;60621;49.576;11.024;2023-04-22T02:39:11;7.50;;;4.50;;
72586;SDS011;60621;49.576;11.024;2023-04-22T02:40:12;8.50;;;4.18;;
72586;SDS011;60621;49.576;11.024;2023-04-22T02:41:14;8.48;;;4.50;;
72586;SDS011;60621;49.576;11.024;2023-04-22T02:42:16;7.60;;;4.60;;
72586;SDS011;60621;49.576;11.024;2023-04-22T02:43:18;11.43;;;4.47;;
72586;SDS011;60621;49.576;11.024;2023-04-22T02:44:19;9.50;;;4.72;;
72586;SDS011;60621;49.576;11.024;2023-04-22T02:45:20;9.60;;;4.43;;
72586;SDS011;60621;49.576;11.024;2023-04-22T02:46:22;7.00;;;4.22;;
72586;SDS011;60621;49.576;11.024;2023-04-22T02:47:24;10.27;;;5.63;;
72586;SDS011;60621;49.576;11.024;2023-04-22T02:48:25;9.45;;;4.60;;
72586;SDS011;60621;49.576;11.024;2023-04-22T02:49:27;9.32;;;4.97;;
72586;SDS011;60621;49.576;11.024;2023-04-22T02:50:28;7.47;;;4.68;;
72586;SDS011;60621;49.576;11.024;2023-04-22T02:51:31;9.52;;;4.70;;
72586;SDS011;60621;49.576;11.024;2023-04-22T02:53:34;8.07;;;4.45;;
72586;SDS011;60621;49.576;11.024;2023-04-22T02:54:36;9.10;;;5.10;;
72586;SDS011;60621;49.576;11.024;2023-04-22T02:55:41;8.48;;;5.18;;
72586;SDS011;60621;49.576;11.024;2023-04-22T02:56:42;11.15;;;5.13;;
72586;SDS011;60621;49.576;11.024;2023-04-22T02:57:44;8.85;;;5.07;;
72586;SDS011;60621;49.576;11.024;2023-04-22T02:58:46;9.82;;;5.20;;
72586;SDS011;60621;49.576;11.024;2023-04-22T02:59:47;8.68;;;4.85;;
72586;SDS011;60621;49.576;11.024;2023-04-22T03:00:49;8.18;;;4.80;;
72586;SDS011;60621;49.576;11.024;2023-04-22T03:01:50;8.00;;;4.85;;
72586;SDS011;60621;49.576;11.024;2023-04-22T03:02:52;9.50;;;5.25;;
72586;SDS011;60621;49.576;11.024;2023-04-22T03:03:54;9.05;;;4.68;;
72586;SDS011;60621;49.576;11.024;2023-04-22T03:04:56;8.57;;;4.93;;
72586;SDS011;60621;49.576;11.024;2023-04-22T03:05:58;9.57;;;5.20;;
72586;SDS011;60621;49.576;11.024;2023-04-22T03:07:00;9.07;;;5.38;;
72586;SDS011;60621;49.576;11.024;2023-04-22T03:08:01;9.43;;;5.15;;
72586;SDS011;60621;49.576;11.024;2023-04-22T03:09:03;8.98;;;5.18;;
72586;SDS011;60621;49.576;11.024;2023-04-22T03:10:04;11.00;;;5.30;;
72586;SDS011;60621;49.576;11.024;2023-04-22T03:11:06;9.13;;;5.55;;
72586;SDS011;60621;49.576;11.024;2023-04-22T03:12:08;10.80;;;5.40;;
72586;SDS011;60621;49.576;11.024;2023-04-22T03:13:11;10.00;;;5.32;;
72586;SDS011;60621;49.576;11.024;2023-04-22T03:14:13;8.50;;;5.35;;
72586;SDS011;60621;49.576;11.024;2023-04-22T03:15:14;10.20;;;5.90;;
72586;SDS011;60621;49.576;11.024;2023-04-22T03:16:21;9.50;;;5.65;;
72586;SDS011;60621;49.576;11.024;2023-04-22T03:17:24;8.77;;;5.45;;
72586;SDS011;60621;49.576;11.024;2023-04-22T03:18:26;9.05;;;5.32;;
72586;SDS011;60621;49.576;11.024;2023-04-22T03:19:27;10.38;;;5.22;;
72586;SDS011;60621;49.576;11.024;2023-04-22T03:20:29;12.85;;;5.65;;
72586;SDS011;60621;49.576;11.024;2023-04-22T03:21:30;7.93;;;5.10;;
72586;SDS011;60621;49.576;11.024;2023-04-22T03:22:32;12.57;;;5.10;;
72586;SDS011;60621;49.576;11.024;2023-04-22T03:23:34;8.07;;;5.03;;
72586;SDS011;60621;49.576;11.024;2023-04-22T03:24:35;9.30;;;4.90;;
72586;SDS011;60621;49.576;11.024;2023-04-22T03:25:37;9.05;;;5.20;;
72586;SDS011;60621;49.576;11.024;2023-04-22T03:26:39;9.75;;;5.43;;
72586;SDS011;60621;49.576;11.024;2023-04-22T03:27:40;11.30;;;5.90;;
72586;SDS011;60621;49.576;11.024;2023-04-22T03:28:41;10.55;;;5.43;;
72586;SDS011;60621;49.576;11.024;2023-04-22T03:29:43;9.23;;;5.00;;
72586;SDS011;60621;49.576;11.024;2023-04-22T03:30:44;8.32;;;4.82;;
72586;SDS011;60621;49.576;11.024;2023-04-22T03:31:46;8.52;;;4.70;;
72586;SDS011;60621;49.576;11.024;2023-04-22T03:32:48;9.18;;;4.88;;
72586;SDS011;60621;49.576;11.024;2023-04-22T03:33:49;8.95;;;4.75;;
72586;SDS011;60621;49.576;11.024;2023-04-22T03:34:51;9.07;;;4.70;;
72586;SDS011;60621;49.576;11.024;2023-04-22T03:35:52;8.23;;;4.47;;
72586;SDS011;60621;49.576;11.024;2023-04-22T03:36:55;7.93;;;4.55;;
72586;SDS011;60621;49.576;11.024;2023-04-22T03:37:56;7.35;;;4.20;;
72586;SDS011;60621;49.576;11.024;2023-04-22T03:38:58;7.40;;;4.25;;
72586;SDS011;60621;49.576;11.024;2023-04-22T03:39:59;9.35;;;4.75;;
72586;SDS011;60621;49.576;11.024;2023-04-22T03:41:01;7.57;;;4.20;;
72586;SDS011;60621;49.576;11.024;2023-04-22T03:42:02;9.23;;;4.60;;
72586;SDS011;60621;49.576;11.024;2023-04-22T03:43:04;8.90;;;4.40;;
72586;SDS011;60621;49.576;11.024;2023-04-22T03:44:05;9.57;;;4.13;;
72586;SDS011;60621;49.576;11.024;2023-04-22T03:45:07;7.80;;;4.40;;
72586;SDS011;60621;49.576;11.024;2023-04-22T03:46:09;9.88;;;4.40;;
72586;SDS011;60621;49.576;11.024;2023-04-22T03:47:11;8.25;;;4.50;;
72586;SDS011;60621;49.576;11.024;2023-04-22T03:48:13;8.65;;;4.30;;
72586;SDS011;60621;49.576;11.024;2023-04-22T03:49:14;9.73;;;4.40;;
72586;SDS011;60621;49.576;11.024;2023-04-22T03:50:16;9.55;;;4.32;;
72586;SDS011;60621;49.576;11.024;2023-04-22T03:51:17;12.52;;;4.63;;
72586;SDS011;60621;49.576;11.024;2023-04-22T03:52:19;8.27;;;4.40;;
72586;SDS011;60621;49.576;11.024;2023-04-22T03:53:21;7.25;;;4.05;;
72586;SDS011;60621;49.576;11.024;2023-04-22T03:54:23;7.40;;;4.35;;
72586;SDS011;60621;49.576;11.024;2023-04-22T03:55:25;9.02;;;4.50;;
72586;SDS011;60621;49.576;11.024;2023-04-22T03:56:27;8.52;;;4.78;;
72586;SDS011;60621;49.576;11.024;2023-04-22T03:57:28;8.52;;;4.47;;
72586;SDS011;60621;49.576;11.024;2023-04-22T03:58:30;7.88;;;4.18;;
72586;SDS011;60621;49.576;11.024;2023-04-22T03:59:31;8.82;;;4.50;;
72586;SDS011;60621;49.576;11.024;2023-04-22T04:00:33;8.20;;;4.55;;
72586;SDS011;60621;49.576;11.024;2023-04-22T04:01:34;10.38;;;4.45;;
72586;SDS011;60621;49.576;11.024;2023-04-22T04:02:36;7.85;;;4.60;;
72586;SDS011;60621;49.576;11.024;2023-04-22T04:03:38;8.48;;;4.50;;
72586;SDS011;60621;49.576;11.024;2023-04-22T04:04:40;8.45;;;4.60;;
72586;SDS011;60621;49.576;11.024;2023-04-22T04:05:41;9.18;;;4.70;;
72586;SDS011;60621;49.576;11.024;2023-04-22T04:06:43;8.88;;;4.88;;
72586;SDS011;60621;49.576;11.024;2023-04-22T04:07:45;10.70;;;4.78;;
72586;SDS011;60621;49.576;11.024;2023-04-22T04:08:46;8.50;;;4.32;;
72586;SDS011;60621;49.576;11.024;2023-04-22T04:09:48;10.70;;;4.85;;
72586;SDS011;60621;49.576;11.024;2023-04-22T04:10:49;9.43;;;4.70;;
72586;SDS011;60621;49.576;11.024;2023-04-22T04:11:51;9.35;;;4.40;;
72586;SDS011;60621;49.576;11.024;2023-04-22T04:12:52;8.93;;;4.97;;
72586;SDS011;60621;49.576;11.024;2023-04-22T04:13:54;7.95;;;4.78;;
72586;SDS011;60621;49.576;11.024;2023-04-22T04:14:55;7.82;;;4.75;;
72586;SDS011;60621;49.576;11.024;2023-04-22T04:15:57;10.70;;;5.15;;
72586;SDS011;60621;49.576;11.024;2023-04-22T04:17:00;9.00;;;4.45;;
72586;SDS011;60621;49.576;11.024;2023-04-22T04:18:02;8.05;;;4.97;;
72586;SDS011;60621;49.576;11.024;2023-04-22T04:19:04;9.38;;;4.68;;
72586;SDS011;60621;49.576;11.024;2023-04-22T04:20:07;8.30;;;4.85;;
72586;SDS011;60621;49.576;11.024;2023-04-22T04:21:09;9.00;;;4.47;;
72586;SDS011;60621;49.576;11.024;2023-04-22T04:22:10;9.98;;;4.88;;
72586;SDS011;60621;49.576;11.024;2023-04-22T04:23:12;7.15;;;4.22;;
72586;SDS011;60621;49.576;11.024;2023-04-22T04:24:13;10.40;;;4.75;;
72586;SDS011;60621;49.576;11.024;2023-04-22T04:25:15;8.27;;;4.38;;
72586;SDS011;60621;49.576;11.024;2023-04-22T04:26:18;9.77;;;4.50;;
72586;SDS011;60621;49.576;11.024;2023-04-22T04:27:21;8.45;;;4.60;;
72586;SDS011;60621;49.576;11.024;2023-04-22T04:28:23;8.07;;;4.90;;
72586;SDS011;60621;49.576;11.024;2023-04-22T04:29:25;8.75;;;4.63;;
72586;SDS011;60621;49.576;11.024;2023-04-22T04:30:27;10.23;;;4.72;;
72586;SDS011;60621;49.576;11.024;2023-04-22T04:31:28;8.10;;;4.20;;
72586;SDS011;60621;49.576;11.024;2023-04-22T04:32:30;9.20;;;4.88;;
72586;SDS011;60621;49.576;11.024;2023-04-22T04:33:34;9.57;;;4.60;;
72586;SDS011;60621;49.576;11.024;2023-04-22T04:34:37;10.32;;;4.50;;
72586;SDS011;60621;49.576;11.024;2023-04-22T04:35:38;7.95;;;4.55;;
72586;SDS011;60621;49.576;11.024;2023-04-22T04:36:41;7.72;;;4.47;;
72586;SDS011;60621;49.576;11.024;2023-04-22T04:37:43;9.32;;;4.50;;
72586;SDS011;60621;49.576;11.024;2023-04-22T04:38:44;10.23;;;4.85;;
72586;SDS011;60621;49.576;11.024;2023-04-22T04:41:51;8.02;;;3.95;;
72586;SDS011;60621;49.576;11.024;2023-04-22T04:42:55;11.13;;;4.68;;
72586;SDS011;60621;49.576;11.024;2023-04-22T04:43:57;10.32;;;4.47;;
72586;SDS011;60621;49.576;11.024;2023-04-22T04:45:01;8.52;;;4.57;;
72586;SDS011;60621;49.576;11.024;2023-04-22T04:46:03;8.07;;;4.50;;
72586;SDS011;60621;49.576;11.024;2023-04-22T04:47:05;7.63;;;4.30;;
72586;SDS011;60621;49.576;11.024;2023-04-22T04:48:07;7.50;;;4.30;;
72586;SDS011;60621;49.576;11.024;2023-04-22T04:49:09;9.13;;;4.32;;
72586;SDS011;60621;49.576;11.024;2023-04-22T04:50:12;9.65;;;4.38;;
72586;SDS011;60621;49.576;11.024;2023-04-22T04:51:14;8.98;;;4.40;;
72586;SDS011;60621;49.576;11.024;2023-04-22T04:52:19;7.97;;;4.35;;
72586;SDS011;60621;49.576;11.024;2023-04-22T04:53:20;10.07;;;4.50;;
72586;SDS011;60621;49.576;11.024;2023-04-22T04:54:22;9.07;;;4.47;;
72586;SDS011;60621;49.576;11.024;2023-04-22T04:55:24;8.73;;;4.40;;
72586;SDS011;60621;49.576;11.024;2023-04-22T04:56:25;8.20;;;4.10;;
72586;SDS011;60621;49.576;11.024;2023-04-22T04:57:27;8.70;;;4.53;;
72586;SDS011;60621;49.576;11.024;2023-04-22T04:58:29;7.45;;;4.40;;
72586;SDS011;60621;49.576;11.024;2023-04-22T04:59:30;7.82;;;4.22;;
72586;SDS011;60621;49.576;11.024;2023-04-22T05:00:32;8.50;;;4.18;;
72586;SDS011;60621;49.576;11.024;2023-04-22T05:01:33;7.45;;;4.22;;
72586;SDS011;60621;49.576;11.024;2023-04-22T05:02:35;9.13;;;4.32;;
72586;SDS011;60621;49.576;11.024;2023-04-22T05:03:37;10.70;;;4.47;;
72586;SDS011;60621;49.576;11.024;2023-04-22T05:04:38;8.55;;;4.50;;
72586;SDS011;60621;49.576;11.024;2023-04-22T05:05:40;8.75;;;3.97;;
72586;SDS011;60621;49.576;11.024;2023-04-22T05:06:42;9.32;;;4.75;;
72586;SDS011;60621;49.576;11.024;2023-04-22T05:07:43;7.82;;;3.95;;
72586;SDS011;60621;49.576;11.024;2023-04-22T05:08:45;10.63;;;4.47;;
72586;SDS011;60621;49.576;11.024;2023-04-22T05:09:46;9.15;;;4.63;;
72586;SDS011;60621;49.576;11.024;2023-04-22T05:10:47;10.07;;;4.15;;
72586;SDS011;60621;49.576;11.024;2023-04-22T05:11:49;11.90;;;4.28;;
72586;SDS011;60621;49.576;11.024;2023-04-22T05:12:51;10.10;;;4.65;;
72586;SDS011;60621;49.576;11.024;2023-04-22T05:13:52;7.88;;;3.88;;
72586;SDS011;60621;49.576;11.024;2023-04-22T05:14:54;6.70;;;3.70;;
72586;SDS011;60621;49.576;11.024;2023-04-22T05:15:55;8.07;;;4.45;;
72586;SDS011;60621;49.576;11.024;2023-04-22T05:16:57;9.45;;;4.22;;
72586;SDS011;60621;49.576;11.024;2023-04-22T05:18:07;7.75;;;4.60;;
72586;SDS011;60621;49.576;11.024;2023-04-22T05:19:08;9.02;;;4.13;;
72586;SDS011;60621;49.576;11.024;2023-04-22T05:20:10;10.07;;;4.55;;
72586;SDS011;60621;49.576;11.024;2023-04-22T05:21:12;9.05;;;4.53;;
72586;SDS011;60621;49.576;11.024;2023-04-22T05:22:13;9.70;;;4.25;;
72586;SDS011;60621;49.576;11.024;2023-04-22T05:23:15;8.43;;;4.35;;
72586;SDS011;60621;49.576;11.024;2023-04-22T05:24:16;8.38;;;3.92;;
72586;SDS011;60621;49.576;11.024;2023-04-22T05:25:18;7.72;;;4.15;;
72586;SDS011;60621;49.576;11.024;2023-04-22T05:26:19;10.00;;;4.50;;
72586;SDS011;60621;49.576;11.024;2023-04-22T05:27:21;7.22;;;4.20;;
72586;SDS011;60621;49.576;11.024;2023-04-22T05:28:22;7.80;;;4.28;;
72586;SDS011;60621;49.576;11.024;2023-04-22T05:29:24;10.23;;;4.25;;
72586;SDS011;60621;49.576;11.024;2023-04-22T05:30:26;11.00;;;4.88;;
72586;SDS011;60621;49.576;11.024;2023-04-22T05:31:27;10.95;;;4.35;;
72586;SDS011;60621;49.576;11.024;2023-04-22T05:32:29;8.95;;;4.68;;
72586;SDS011;60621;49.576;11.024;2023-04-22T05:33:31;8.35;;;4.22;;
72586;SDS011;60621;49.576;11.024;2023-04-22T05:34:32;7.53;;;4.38;;
72586;SDS011;60621;49.576;11.024;2023-04-22T05:35:34;8.27;;;4.15;;
72586;SDS011;60621;49.576;11.024;2023-04-22T05:36:35;6.60;;;3.70;;
72586;SDS011;60621;49.576;11.024;2023-04-22T05:37:37;8.35;;;3.88;;
72586;SDS011;60621;49.576;11.024;2023-04-22T05:38:39;8.57;;;4.90;;
72586;SDS011;60621;49.576;11.024;2023-04-22T05:39:40;11.25;;;5.20;;
72586;SDS011;60621;49.576;11.024;2023-04-22T05:40:42;7.90;;;4.15;;
72586;SDS011;60621;49.576;11.024;2023-04-22T05:41:44;7.82;;;3.80;;
72586;SDS011;60621;49.576;11.024;2023-04-22T05:42:47;8.60;;;4.25;;
72586;SDS011;60621;49.576;11.024;2023-04-22T05:43:48;8.27;;;4.30;;
72586;SDS011;60621;49.576;11.024;2023-04-22T05:44:50;8.23;;;4.28;;
72586;SDS011;60621;49.576;11.024;2023-04-22T05:45:51;10.15;;;4.47;;
72586;SDS011;60621;49.576;11.024;2023-04-22T05:46:53;10.68;;;4.30;;
72586;SDS011;60621;49.576;11.024;2023-04-22T05:47:54;8.23;;;4.60;;
72586;SDS011;60621;49.576;11.024;2023-04-22T05:48:56;12.80;;;4.35;;
72586;SDS011;60621;49.576;11.024;2023-04-22T05:49:57;7.80;;;4.38;;
72586;SDS011;60621;49.576;11.024;2023-04-22T05:50:59;8.88;;;4.18;;
72586;SDS011;60621;49.576;11.024;2023-04-22T05:52:00;8.30;;;4.25;;
72586;SDS011;60621;49.576;11.024;2023-04-22T05:53:02;8.05;;;4.20;;
72586;SDS011;60621;49.576;11.024;2023-04-22T05:54:03;10.27;;;4.07;;
72586;SDS011;60621;49.576;11.024;2023-04-22T05:55:05;8.35;;;4.38;;
72586;SDS011;60621;49.576;11.024;2023-04-22T05:56:07;7.32;;;3.92;;
72586;SDS011;60621;49.576;11.024;2023-04-22T05:57:09;8.60;;;4.13;;
72586;SDS011;60621;49.576;11.024;2023-04-22T05:58:10;8.13;;;4.45;;
72586;SDS011;60621;49.576;11.024;2023-04-22T05:59:12;7.55;;;3.80;;
72586;SDS011;60621;49.576;11.024;2023-04-22T06:00:13;7.50;;;3.88;;
72586;SDS011;60621;49.576;11.024;2023-04-22T06:01:16;7.95;;;4.22;;
72586;SDS011;60621;49.576;11.024;2023-04-22T06:02:17;8.73;;;3.97;;
72586;SDS011;60621;49.576;11.024;2023-04-22T06:03:19;6.28;;;3.45;;
72586;SDS011;60621;49.576;11.024;2023-04-22T06:04:21;8.15;;;3.92;;
72586;SDS011;60621;49.576;11.024;2023-04-22T06:05:23;9.02;;;4.03;;
72586;SDS011;60621;49.576;11.024;2023-04-22T06:06:25;7.22;;;3.58;;
72586;SDS011;60621;49.576;11.024;2023-04-22T06:07:27;7.93;;;4.13;;
72586;SDS011;60621;49.576;11.024;2023-04-22T06:08:32;7.85;;;3.50;;
72586;SDS011;60621;49.576;11.024;2023-04-22T06:09:34;10.63;;;4.20;;
72586;SDS011;60621;49.576;11.024;2023-04-22T06:10:36;6.70;;;3.50;;